Amana, Iowa
Current Conditions -  °F | °C
As of 10:52 AM on Wednesday 26 Nov 2014 (Local Time) from KCID Reporting Station
Haze Haze  
Wind Chill: 15°   Ceiling: 5500
Heat Index: 27°   Visibility: 6mi
Dew Point: 24°   Wind: 15mph
Humidity: 89%   Direction: 90°E
Pressure: 30.02"   Gusts: NA
Location:  41.8°N, 91.87°W
Report Text: KCID 261652Z 09013KT 6SM BR OVC055 M03/M04 A3002 RMK AO2 SLP178 T10281044
Loading
Personal Weather Stations






























Interactive Weather Map New forecast layout! Learn more

10-Day Weather Forecast

Advertisements
Track Severe Weather on mobile